sensor_id;sensor_type;location;lat;lon;timestamp;P1;durP1;ratioP1;P2;durP2;ratioP2
72369;SDS011;60343;-32.030;115.880;2022-11-20T00:01:10;3.08;;;0.20;;
72369;SDS011;60343;-32.030;115.880;2022-11-20T00:06:05;0.43;;;0.10;;
72369;SDS011;60343;-32.030;115.880;2022-11-20T00:08:34;0.93;;;0.10;;
72369;SDS011;60343;-32.030;115.880;2022-11-20T00:11:03;0.70;;;0.10;;
72369;SDS011;60343;-32.030;115.880;2022-11-20T00:13:31;2.17;;;0.10;;
72369;SDS011;60343;-32.030;115.880;2022-11-20T00:15:59;0.65;;;0.10;;
72369;SDS011;60343;-32.030;115.880;2022-11-20T00:18:33;1.17;;;0.20;;
72369;SDS011;60343;-32.030;115.880;2022-11-20T00:21:01;0.65;;;0.10;;
72369;SDS011;60343;-32.030;115.880;2022-11-20T00:23:29;0.80;;;0.28;;
72369;SDS011;60343;-32.030;115.880;2022-11-20T00:26:00;0.47;;;0.00;;
72369;SDS011;60343;-32.030;115.880;2022-11-20T00:28:28;1.58;;;0.13;;
72369;SDS011;60343;-32.030;115.880;2022-11-20T00:31:00;1.73;;;0.15;;
72369;SDS011;60343;-32.030;115.880;2022-11-20T00:33:35;1.52;;;0.10;;
72369;SDS011;60343;-32.030;115.880;2022-11-20T00:36:03;1.20;;;0.10;;
72369;SDS011;60343;-32.030;115.880;2022-11-20T00:38:32;0.55;;;0.10;;
72369;SDS011;60343;-32.030;115.880;2022-11-20T00:41:01;0.20;;;0.00;;
72369;SDS011;60343;-32.030;115.880;2022-11-20T00:43:31;1.50;;;0.20;;
72369;SDS011;60343;-32.030;115.880;2022-11-20T00:46:00;1.00;;;0.10;;
72369;SDS011;60343;-32.030;115.880;2022-11-20T00:48:35;0.57;;;0.25;;
72369;SDS011;60343;-32.030;115.880;2022-11-20T00:51:03;1.13;;;0.10;;
72369;SDS011;60343;-32.030;115.880;2022-11-20T00:53:31;1.17;;;0.10;;
72369;SDS011;60343;-32.030;115.880;2022-11-20T00:55:59;2.15;;;0.20;;
72369;SDS011;60343;-32.030;115.880;2022-11-20T00:58:29;2.53;;;0.30;;
72369;SDS011;60343;-32.030;115.880;2022-11-20T01:01:00;0.85;;;0.10;;
72369;SDS011;60343;-32.030;115.880;2022-11-20T01:03:36;1.33;;;0.10;;
72369;SDS011;60343;-32.030;115.880;2022-11-20T01:06:05;2.17;;;0.30;;
72369;SDS011;60343;-32.030;115.880;2022-11-20T01:08:34;1.00;;;0.10;;
72369;SDS011;60343;-32.030;115.880;2022-11-20T01:11:04;0.93;;;0.10;;
72369;SDS011;60343;-32.030;115.880;2022-11-20T01:13:32;0.80;;;0.10;;
72369;SDS011;60343;-32.030;115.880;2022-11-20T01:16:02;1.05;;;0.10;;
72369;SDS011;60343;-32.030;115.880;2022-11-20T01:18:36;1.33;;;0.10;;
72369;SDS011;60343;-32.030;115.880;2022-11-20T01:21:05;1.13;;;0.20;;
72369;SDS011;60343;-32.030;115.880;2022-11-20T01:23:34;1.65;;;0.28;;
72369;SDS011;60343;-32.030;115.880;2022-11-20T01:26:04;0.52;;;0.00;;
72369;SDS011;60343;-32.030;115.880;2022-11-20T01:28:33;0.00;;;0.00;;
72369;SDS011;60343;-32.030;115.880;2022-11-20T01:31:01;1.05;;;0.10;;
72369;SDS011;60343;-32.030;115.880;2022-11-20T01:33:42;1.27;;;0.10;;
72369;SDS011;60343;-32.030;115.880;2022-11-20T01:36:11;1.38;;;0.17;;
72369;SDS011;60343;-32.030;115.880;2022-11-20T01:38:39;0.20;;;0.00;;
72369;SDS011;60343;-32.030;115.880;2022-11-20T01:41:07;1.17;;;0.17;;
72369;SDS011;60343;-32.030;115.880;2022-11-20T01:43:36;0.50;;;0.10;;
72369;SDS011;60343;-32.030;115.880;2022-11-20T01:46:08;0.30;;;0.00;;
72369;SDS011;60343;-32.030;115.880;2022-11-20T01:48:47;0.30;;;0.00;;
72369;SDS011;60343;-32.030;115.880;2022-11-20T01:51:21;1.38;;;0.10;;
72369;SDS011;60343;-32.030;115.880;2022-11-20T01:53:55;0.20;;;0.10;;
72369;SDS011;60343;-32.030;115.880;2022-11-20T01:56:26;0.47;;;0.10;;
72369;SDS011;60343;-32.030;115.880;2022-11-20T01:58:56;0.32;;;0.10;;
72369;SDS011;60343;-32.030;115.880;2022-11-20T02:01:27;0.30;;;0.10;;
72369;SDS011;60343;-32.030;115.880;2022-11-20T02:04:00;0.08;;;0.00;;
72369;SDS011;60343;-32.030;115.880;2022-11-20T02:06:29;0.28;;;0.03;;
72369;SDS011;60343;-32.030;115.880;2022-11-20T02:09:01;0.00;;;0.00;;
72369;SDS011;60343;-32.030;115.880;2022-11-20T02:11:30;0.60;;;0.10;;
72369;SDS011;60343;-32.030;115.880;2022-11-20T02:13:58;0.32;;;0.10;;
72369;SDS011;60343;-32.030;115.880;2022-11-20T02:16:27;0.30;;;0.10;;
72369;SDS011;60343;-32.030;115.880;2022-11-20T02:19:02;0.30;;;0.08;;
72369;SDS011;60343;-32.030;115.880;2022-11-20T02:21:35;0.25;;;0.00;;
72369;SDS011;60343;-32.030;115.880;2022-11-20T02:24:13;0.15;;;0.10;;
72369;SDS011;60343;-32.030;115.880;2022-11-20T02:26:49;0.20;;;0.05;;
72369;SDS011;60343;-32.030;115.880;2022-11-20T02:29:21;0.25;;;0.00;;
72369;SDS011;60343;-32.030;115.880;2022-11-20T02:31:52;0.43;;;0.00;;
72369;SDS011;60343;-32.030;115.880;2022-11-20T02:34:23;0.00;;;0.00;;
72369;SDS011;60343;-32.030;115.880;2022-11-20T02:36:51;1.25;;;0.40;;
72369;SDS011;60343;-32.030;115.880;2022-11-20T02:39:25;0.90;;;0.38;;
72369;SDS011;60343;-32.030;115.880;2022-11-20T02:41:54;1.65;;;0.30;;
72369;SDS011;60343;-32.030;115.880;2022-11-20T02:44:23;0.85;;;0.22;;
72369;SDS011;60343;-32.030;115.880;2022-11-20T02:46:50;1.38;;;0.40;;
72369;SDS011;60343;-32.030;115.880;2022-11-20T02:49:18;0.90;;;0.30;;
72369;SDS011;60343;-32.030;115.880;2022-11-20T02:51:46;1.55;;;0.43;;
72369;SDS011;60343;-32.030;115.880;2022-11-20T02:54:13;2.13;;;0.50;;
72369;SDS011;60343;-32.030;115.880;2022-11-20T02:56:46;1.80;;;0.50;;
72369;SDS011;60343;-32.030;115.880;2022-11-20T02:59:14;1.35;;;0.50;;
72369;SDS011;60343;-32.030;115.880;2022-11-20T03:01:42;1.00;;;0.40;;
72369;SDS011;60343;-32.030;115.880;2022-11-20T03:04:10;1.50;;;0.60;;
72369;SDS011;60343;-32.030;115.880;2022-11-20T03:06:37;0.95;;;0.40;;
72369;SDS011;60343;-32.030;115.880;2022-11-20T03:09:05;0.77;;;0.35;;
72369;SDS011;60343;-32.030;115.880;2022-11-20T03:11:33;1.38;;;0.50;;
72369;SDS011;60343;-32.030;115.880;2022-11-20T03:14:07;0.95;;;0.40;;
72369;SDS011;60343;-32.030;115.880;2022-11-20T03:16:35;1.85;;;0.60;;
72369;SDS011;60343;-32.030;115.880;2022-11-20T03:19:02;1.60;;;0.50;;
72369;SDS011;60343;-32.030;115.880;2022-11-20T03:21:30;1.30;;;0.50;;
72369;SDS011;60343;-32.030;115.880;2022-11-20T03:24:00;2.05;;;0.60;;
72369;SDS011;60343;-32.030;115.880;2022-11-20T03:26:28;2.92;;;0.60;;
72369;SDS011;60343;-32.030;115.880;2022-11-20T03:28:56;2.45;;;0.70;;
72369;SDS011;60343;-32.030;115.880;2022-11-20T03:31:30;1.45;;;0.60;;
72369;SDS011;60343;-32.030;115.880;2022-11-20T03:33:59;1.90;;;0.50;;
72369;SDS011;60343;-32.030;115.880;2022-11-20T03:36:27;1.65;;;0.50;;
72369;SDS011;60343;-32.030;115.880;2022-11-20T03:38:55;1.27;;;0.57;;
72369;SDS011;60343;-32.030;115.880;2022-11-20T03:41:35;1.20;;;0.50;;
72369;SDS011;60343;-32.030;115.880;2022-11-20T03:50:25;1.90;;;0.65;;
72369;SDS011;60343;-32.030;115.880;2022-11-20T03:52:52;2.40;;;0.65;;
72369;SDS011;60343;-32.030;115.880;2022-11-20T03:55:20;2.40;;;0.80;;
72369;SDS011;60343;-32.030;115.880;2022-11-20T03:57:49;1.70;;;0.50;;
72369;SDS011;60343;-32.030;115.880;2022-11-20T04:00:16;1.80;;;0.60;;
72369;SDS011;60343;-32.030;115.880;2022-11-20T04:02:44;2.25;;;0.60;;
72369;SDS011;60343;-32.030;115.880;2022-11-20T04:05:12;1.30;;;0.50;;
72369;SDS011;60343;-32.030;115.880;2022-11-20T04:07:46;1.17;;;0.50;;
72369;SDS011;60343;-32.030;115.880;2022-11-20T04:10:14;1.40;;;0.57;;
72369;SDS011;60343;-32.030;115.880;2022-11-20T04:12:41;1.15;;;0.50;;
72369;SDS011;60343;-32.030;115.880;2022-11-20T04:15:09;1.63;;;0.60;;
72369;SDS011;60343;-32.030;115.880;2022-11-20T04:17:37;1.33;;;0.50;;
72369;SDS011;60343;-32.030;115.880;2022-11-20T04:20:05;2.15;;;0.80;;
72369;SDS011;60343;-32.030;115.880;2022-11-20T04:22:33;2.88;;;0.82;;
72369;SDS011;60343;-32.030;115.880;2022-11-20T04:25:07;2.00;;;0.80;;
72369;SDS011;60343;-32.030;115.880;2022-11-20T04:27:35;2.08;;;0.90;;
72369;SDS011;60343;-32.030;115.880;2022-11-20T04:30:02;2.28;;;0.80;;
72369;SDS011;60343;-32.030;115.880;2022-11-20T04:32:30;2.10;;;0.80;;
72369;SDS011;60343;-32.030;115.880;2022-11-20T04:34:58;2.28;;;0.80;;
72369;SDS011;60343;-32.030;115.880;2022-11-20T04:37:26;1.65;;;0.70;;
72369;SDS011;60343;-32.030;115.880;2022-11-20T04:39:53;2.22;;;0.85;;
72369;SDS011;60343;-32.030;115.880;2022-11-20T04:42:26;2.22;;;0.73;;
72369;SDS011;60343;-32.030;115.880;2022-11-20T04:44:54;2.72;;;0.90;;
72369;SDS011;60343;-32.030;115.880;2022-11-20T04:47:22;3.15;;;0.80;;
72369;SDS011;60343;-32.030;115.880;2022-11-20T04:49:49;2.05;;;0.90;;
72369;SDS011;60343;-32.030;115.880;2022-11-20T04:52:17;2.10;;;0.80;;
72369;SDS011;60343;-32.030;115.880;2022-11-20T04:54:45;2.20;;;0.80;;
72369;SDS011;60343;-32.030;115.880;2022-11-20T04:57:13;2.33;;;0.70;;
72369;SDS011;60343;-32.030;115.880;2022-11-20T04:59:49;2.65;;;0.90;;
72369;SDS011;60343;-32.030;115.880;2022-11-20T05:02:19;2.78;;;1.10;;
72369;SDS011;60343;-32.030;115.880;2022-11-20T05:04:48;2.63;;;1.02;;
72369;SDS011;60343;-32.030;115.880;2022-11-20T05:07:16;2.80;;;0.85;;
72369;SDS011;60343;-32.030;115.880;2022-11-20T05:09:43;3.28;;;1.30;;
72369;SDS011;60343;-32.030;115.880;2022-11-20T05:12:11;2.83;;;1.15;;
72369;SDS011;60343;-32.030;115.880;2022-11-20T05:14:39;2.95;;;1.20;;
72369;SDS011;60343;-32.030;115.880;2022-11-20T05:17:12;3.03;;;1.00;;
72369;SDS011;60343;-32.030;115.880;2022-11-20T05:19:40;2.50;;;1.08;;
72369;SDS011;60343;-32.030;115.880;2022-11-20T05:22:07;2.58;;;0.80;;
72369;SDS011;60343;-32.030;115.880;2022-11-20T05:24:35;2.60;;;0.90;;
72369;SDS011;60343;-32.030;115.880;2022-11-20T05:27:02;3.92;;;0.80;;
72369;SDS011;60343;-32.030;115.880;2022-11-20T05:29:30;2.75;;;0.90;;
72369;SDS011;60343;-32.030;115.880;2022-11-20T05:31:58;2.95;;;1.02;;
72369;SDS011;60343;-32.030;115.880;2022-11-20T05:34:31;2.38;;;0.65;;
72369;SDS011;60343;-32.030;115.880;2022-11-20T05:36:58;3.33;;;0.80;;
72369;SDS011;60343;-32.030;115.880;2022-11-20T05:39:26;3.03;;;0.70;;
72369;SDS011;60343;-32.030;115.880;2022-11-20T05:41:54;2.50;;;0.73;;
72369;SDS011;60343;-32.030;115.880;2022-11-20T05:44:25;3.25;;;0.60;;
72369;SDS011;60343;-32.030;115.880;2022-11-20T05:47:14;2.55;;;0.50;;
72369;SDS011;60343;-32.030;115.880;2022-11-20T05:49:47;1.73;;;0.45;;
72369;SDS011;60343;-32.030;115.880;2022-11-20T05:52:15;2.95;;;0.60;;
72369;SDS011;60343;-32.030;115.880;2022-11-20T05:54:42;1.67;;;0.60;;
72369;SDS011;60343;-32.030;115.880;2022-11-20T05:57:10;3.67;;;0.50;;
72369;SDS011;60343;-32.030;115.880;2022-11-20T05:59:38;1.45;;;0.50;;
72369;SDS011;60343;-32.030;115.880;2022-11-20T06:02:05;1.92;;;0.52;;
72369;SDS011;60343;-32.030;115.880;2022-11-20T06:04:35;1.65;;;0.40;;
72369;SDS011;60343;-32.030;115.880;2022-11-20T06:07:10;1.13;;;0.40;;
72369;SDS011;60343;-32.030;115.880;2022-11-20T06:09:38;1.13;;;0.30;;
72369;SDS011;60343;-32.030;115.880;2022-11-20T06:12:06;1.98;;;0.40;;
72369;SDS011;60343;-32.030;115.880;2022-11-20T06:14:34;1.92;;;0.50;;
72369;SDS011;60343;-32.030;115.880;2022-11-20T06:17:01;3.42;;;1.02;;
72369;SDS011;60343;-32.030;115.880;2022-11-20T06:19:29;1.77;;;0.40;;
72369;SDS011;60343;-32.030;115.880;2022-11-20T06:21:57;1.33;;;0.30;;
72369;SDS011;60343;-32.030;115.880;2022-11-20T06:24:30;0.32;;;0.20;;
72369;SDS011;60343;-32.030;115.880;2022-11-20T06:26:58;0.73;;;0.22;;
72369;SDS011;60343;-32.030;115.880;2022-11-20T06:29:25;0.82;;;0.20;;
72369;SDS011;60343;-32.030;115.880;2022-11-20T06:31:53;3.42;;;0.30;;
72369;SDS011;60343;-32.030;115.880;2022-11-20T06:34:20;0.73;;;0.20;;
72369;SDS011;60343;-32.030;115.880;2022-11-20T06:36:48;1.40;;;0.20;;
72369;SDS011;60343;-32.030;115.880;2022-11-20T06:39:16;0.73;;;0.20;;
72369;SDS011;60343;-32.030;115.880;2022-11-20T06:41:49;1.48;;;0.35;;
72369;SDS011;60343;-32.030;115.880;2022-11-20T06:44:17;1.70;;;0.32;;
72369;SDS011;60343;-32.030;115.880;2022-11-20T06:46:44;1.55;;;0.20;;
72369;SDS011;60343;-32.030;115.880;2022-11-20T06:49:12;1.63;;;0.28;;
72369;SDS011;60343;-32.030;115.880;2022-11-20T06:51:40;2.08;;;0.20;;
72369;SDS011;60343;-32.030;115.880;2022-11-20T06:54:07;1.52;;;0.10;;
72369;SDS011;60343;-32.030;115.880;2022-11-20T06:56:35;2.60;;;0.30;;
72369;SDS011;60343;-32.030;115.880;2022-11-20T06:59:09;0.45;;;0.17;;
72369;SDS011;60343;-32.030;115.880;2022-11-20T07:01:37;0.63;;;0.13;;
72369;SDS011;60343;-32.030;115.880;2022-11-20T07:04:05;1.88;;;0.20;;
72369;SDS011;60343;-32.030;115.880;2022-11-20T07:06:33;2.33;;;0.17;;
72369;SDS011;60343;-32.030;115.880;2022-11-20T07:09:00;1.33;;;0.10;;
72369;SDS011;60343;-32.030;115.880;2022-11-20T07:11:28;2.22;;;0.17;;
72369;SDS011;60343;-32.030;115.880;2022-11-20T07:13:57;2.17;;;0.20;;
72369;SDS011;60343;-32.030;115.880;2022-11-20T07:16:30;1.10;;;0.20;;
72369;SDS011;60343;-32.030;115.880;2022-11-20T07:18:58;1.40;;;0.10;;
72369;SDS011;60343;-32.030;115.880;2022-11-20T07:21:26;1.58;;;0.20;;
72369;SDS011;60343;-32.030;115.880;2022-11-20T07:23:57;1.10;;;0.30;;
72369;SDS011;60343;-32.030;115.880;2022-11-20T07:26:24;0.28;;;0.10;;
72369;SDS011;60343;-32.030;115.880;2022-11-20T07:28:52;1.73;;;0.20;;
72369;SDS011;60343;-32.030;115.880;2022-11-20T07:31:20;1.25;;;0.10;;
72369;SDS011;60343;-32.030;115.880;2022-11-20T07:33:54;1.45;;;0.20;;
72369;SDS011;60343;-32.030;115.880;2022-11-20T07:36:23;2.10;;;0.30;;
72369;SDS011;60343;-32.030;115.880;2022-11-20T07:38:51;0.65;;;0.10;;
72369;SDS011;60343;-32.030;115.880;2022-11-20T07:41:18;1.00;;;0.10;;
72369;SDS011;60343;-32.030;115.880;2022-11-20T07:43:46;2.10;;;0.20;;
72369;SDS011;60343;-32.030;115.880;2022-11-20T07:46:14;0.90;;;0.10;;
72369;SDS011;60343;-32.030;115.880;2022-11-20T07:48:41;3.55;;;0.20;;
72369;SDS011;60343;-32.030;115.880;2022-11-20T07:51:14;1.17;;;0.20;;
72369;SDS011;60343;-32.030;115.880;2022-11-20T07:53:42;3.30;;;0.25;;
72369;SDS011;60343;-32.030;115.880;2022-11-20T07:56:10;0.82;;;0.13;;
72369;SDS011;60343;-32.030;115.880;2022-11-20T07:58:37;1.55;;;0.20;;
72369;SDS011;60343;-32.030;115.880;2022-11-20T08:01:06;0.55;;;0.10;;
72369;SDS011;60343;-32.030;115.880;2022-11-20T08:03:34;2.03;;;0.30;;
72369;SDS011;60343;-32.030;115.880;2022-11-20T08:06:02;1.38;;;0.30;;
72369;SDS011;60343;-32.030;115.880;2022-11-20T08:08:35;1.15;;;0.30;;
72369;SDS011;60343;-32.030;115.880;2022-11-20T08:11:03;2.08;;;0.10;;
72369;SDS011;60343;-32.030;115.880;2022-11-20T08:13:31;1.55;;;0.20;;
72369;SDS011;60343;-32.030;115.880;2022-11-20T08:15:58;2.53;;;0.38;;
72369;SDS011;60343;-32.030;115.880;2022-11-20T08:18:26;3.20;;;0.38;;
72369;SDS011;60343;-32.030;115.880;2022-11-20T08:20:56;3.92;;;0.40;;
72369;SDS011;60343;-32.030;115.880;2022-11-20T08:23:24;1.90;;;0.20;;
72369;SDS011;60343;-32.030;115.880;2022-11-20T08:25:57;2.00;;;0.22;;
72369;SDS011;60343;-32.030;115.880;2022-11-20T08:28:25;3.33;;;0.20;;
72369;SDS011;60343;-32.030;115.880;2022-11-20T08:30:57;1.58;;;0.20;;
72369;SDS011;60343;-32.030;115.880;2022-11-20T08:33:25;2.50;;;0.10;;
72369;SDS011;60343;-32.030;115.880;2022-11-20T08:35:53;2.65;;;0.30;;
72369;SDS011;60343;-32.030;115.880;2022-11-20T08:38:24;5.72;;;0.63;;
72369;SDS011;60343;-32.030;115.880;2022-11-20T08:40:57;5.13;;;1.02;;
72369;SDS011;60343;-32.030;115.880;2022-11-20T08:43:26;1.33;;;0.40;;
72369;SDS011;60343;-32.030;115.880;2022-11-20T08:45:54;1.90;;;0.40;;
72369;SDS011;60343;-32.030;115.880;2022-11-20T08:48:23;2.63;;;0.20;;
72369;SDS011;60343;-32.030;115.880;2022-11-20T08:50:51;1.25;;;0.20;;
72369;SDS011;60343;-32.030;115.880;2022-11-20T08:53:18;1.52;;;0.20;;
72369;SDS011;60343;-32.030;115.880;2022-11-20T08:55:46;2.08;;;0.20;;
72369;SDS011;60343;-32.030;115.880;2022-11-20T08:58:19;1.70;;;0.20;;
72369;SDS011;60343;-32.030;115.880;2022-11-20T09:00:47;0.93;;;0.20;;
72369;SDS011;60343;-32.030;115.880;2022-11-20T09:03:15;4.78;;;0.50;;
72369;SDS011;60343;-32.030;115.880;2022-11-20T09:05:42;4.53;;;0.40;;
72369;SDS011;60343;-32.030;115.880;2022-11-20T09:08:10;3.55;;;0.47;;
72369;SDS011;60343;-32.030;115.880;2022-11-20T09:10:38;4.63;;;0.40;;
72369;SDS011;60343;-32.030;115.880;2022-11-20T09:13:05;7.65;;;0.60;;
72369;SDS011;60343;-32.030;115.880;2022-11-20T09:15:39;2.30;;;0.30;;
72369;SDS011;60343;-32.030;115.880;2022-11-20T09:18:07;1.42;;;0.30;;
72369;SDS011;60343;-32.030;115.880;2022-11-20T09:20:35;2.70;;;0.60;;
72369;SDS011;60343;-32.030;115.880;2022-11-20T09:23:02;4.70;;;0.40;;
72369;SDS011;60343;-32.030;115.880;2022-11-20T09:25:30;2.38;;;0.40;;
72369;SDS011;60343;-32.030;115.880;2022-11-20T09:27:58;2.45;;;0.40;;
72369;SDS011;60343;-32.030;115.880;2022-11-20T09:30:26;2.67;;;0.30;;
72369;SDS011;60343;-32.030;115.880;2022-11-20T09:33:00;0.95;;;0.20;;
72369;SDS011;60343;-32.030;115.880;2022-11-20T09:35:29;2.85;;;0.40;;
72369;SDS011;60343;-32.030;115.880;2022-11-20T09:37:57;3.20;;;0.32;;
72369;SDS011;60343;-32.030;115.880;2022-11-20T09:40:29;1.70;;;0.30;;
72369;SDS011;60343;-32.030;115.880;2022-11-20T09:42:58;0.98;;;0.20;;
72369;SDS011;60343;-32.030;115.880;2022-11-20T09:45:33;1.83;;;0.30;;
72369;SDS011;60343;-32.030;115.880;2022-11-20T09:48:20;1.17;;;0.30;;
72369;SDS011;60343;-32.030;115.880;2022-11-20T09:51:00;2.33;;;0.30;;
72369;SDS011;60343;-32.030;115.880;2022-11-20T09:53:44;3.85;;;0.30;;
72369;SDS011;60343;-32.030;115.880;2022-11-20T09:56:24;1.80;;;0.30;;
72369;SDS011;60343;-32.030;115.880;2022-11-20T09:58:54;3.75;;;0.40;;
72369;SDS011;60343;-32.030;115.880;2022-11-20T10:01:30;2.28;;;0.30;;
72369;SDS011;60343;-32.030;115.880;2022-11-20T10:04:09;4.43;;;0.40;;
72369;SDS011;60343;-32.030;115.880;2022-11-20T10:06:42;3.13;;;0.28;;
72369;SDS011;60343;-32.030;115.880;2022-11-20T10:09:21;2.33;;;0.22;;
72369;SDS011;60343;-32.030;115.880;2022-11-20T10:11:56;2.40;;;0.30;;
72369;SDS011;60343;-32.030;115.880;2022-11-20T10:14:46;3.10;;;0.50;;
72369;SDS011;60343;-32.030;115.880;2022-11-20T10:17:26;2.78;;;0.30;;
72369;SDS011;60343;-32.030;115.880;2022-11-20T10:20:19;2.33;;;0.30;;
72369;SDS011;60343;-32.030;115.880;2022-11-20T10:23:00;4.32;;;0.30;;
72369;SDS011;60343;-32.030;115.880;2022-11-20T10:25:43;3.58;;;0.28;;
72369;SDS011;60343;-32.030;115.880;2022-11-20T10:28:24;0.47;;;0.20;;
72369;SDS011;60343;-32.030;115.880;2022-11-20T10:31:07;2.33;;;0.25;;
72369;SDS011;60343;-32.030;115.880;2022-11-20T10:39:51;1.20;;;0.13;;
72369;SDS011;60343;-32.030;115.880;2022-11-20T10:42:26;2.42;;;0.30;;
72369;SDS011;60343;-32.030;115.880;2022-11-20T10:45:02;4.40;;;0.38;;
72369;SDS011;60343;-32.030;115.880;2022-11-20T10:47:41;3.15;;;0.70;;
72369;SDS011;60343;-32.030;115.880;2022-11-20T10:50:11;3.17;;;0.77;;
72369;SDS011;60343;-32.030;115.880;2022-11-20T10:52:44;3.90;;;0.30;;
72369;SDS011;60343;-32.030;115.880;2022-11-20T10:55:30;2.05;;;0.30;;
72369;SDS011;60343;-32.030;115.880;2022-11-20T11:04:12;3.33;;;0.32;;
72369;SDS011;60343;-32.030;115.880;2022-11-20T11:06:49;5.35;;;0.65;;
72369;SDS011;60343;-32.030;115.880;2022-11-20T11:09:24;1.63;;;0.82;;
72369;SDS011;60343;-32.030;115.880;2022-11-20T11:12:03;3.58;;;0.40;;
72369;SDS011;60343;-32.030;115.880;2022-11-20T11:14:41;3.33;;;0.40;;
72369;SDS011;60343;-32.030;115.880;2022-11-20T11:17:23;1.98;;;0.25;;
72369;SDS011;60343;-32.030;115.880;2022-11-20T11:22:46;3.00;;;0.30;;
72369;SDS011;60343;-32.030;115.880;2022-11-20T11:25:21;3.17;;;0.38;;
72369;SDS011;60343;-32.030;115.880;2022-11-20T11:27:57;4.00;;;0.50;;
72369;SDS011;60343;-32.030;115.880;2022-11-20T11:30:27;3.65;;;0.50;;
72369;SDS011;60343;-32.030;115.880;2022-11-20T11:33:06;3.72;;;0.50;;
72369;SDS011;60343;-32.030;115.880;2022-11-20T11:35:39;2.63;;;0.38;;
72369;SDS011;60343;-32.030;115.880;2022-11-20T11:38:12;2.83;;;0.25;;
72369;SDS011;60343;-32.030;115.880;2022-11-20T11:40:42;4.85;;;0.73;;
72369;SDS011;60343;-32.030;115.880;2022-11-20T11:43:23;3.97;;;0.30;;
72369;SDS011;60343;-32.030;115.880;2022-11-20T11:45:54;2.67;;;0.30;;
72369;SDS011;60343;-32.030;115.880;2022-11-20T11:48:22;4.25;;;0.30;;
72369;SDS011;60343;-32.030;115.880;2022-11-20T11:50:50;4.00;;;0.40;;
72369;SDS011;60343;-32.030;115.880;2022-11-20T11:53:18;8.48;;;0.70;;
72369;SDS011;60343;-32.030;115.880;2022-11-20T11:55:49;2.90;;;0.38;;
72369;SDS011;60343;-32.030;115.880;2022-11-20T12:01:10;3.58;;;0.60;;
72369;SDS011;60343;-32.030;115.880;2022-11-20T12:03:50;7.38;;;0.45;;
72369;SDS011;60343;-32.030;115.880;2022-11-20T12:06:25;2.83;;;0.40;;
72369;SDS011;60343;-32.030;115.880;2022-11-20T12:08:55;5.20;;;0.35;;
72369;SDS011;60343;-32.030;115.880;2022-11-20T12:11:30;1.80;;;0.30;;
72369;SDS011;60343;-32.030;115.880;2022-11-20T12:14:09;3.65;;;0.52;;
72369;SDS011;60343;-32.030;115.880;2022-11-20T12:16:40;3.38;;;0.50;;
72369;SDS011;60343;-32.030;115.880;2022-11-20T12:19:09;4.97;;;0.80;;
72369;SDS011;60343;-32.030;115.880;2022-11-20T12:21:40;6.18;;;0.63;;
72369;SDS011;60343;-32.030;115.880;2022-11-20T12:24:24;5.30;;;0.55;;
72369;SDS011;60343;-32.030;115.880;2022-11-20T12:27:04;2.70;;;0.45;;
72369;SDS011;60343;-32.030;115.880;2022-11-20T12:29:49;4.60;;;0.50;;
72369;SDS011;60343;-32.030;115.880;2022-11-20T12:32:36;5.47;;;0.50;;
72369;SDS011;60343;-32.030;115.880;2022-11-20T12:38:13;2.90;;;0.43;;
72369;SDS011;60343;-32.030;115.880;2022-11-20T12:41:04;3.53;;;0.60;;
72369;SDS011;60343;-32.030;115.880;2022-11-20T12:43:39;4.43;;;0.40;;
72369;SDS011;60343;-32.030;115.880;2022-11-20T12:46:33;4.53;;;0.38;;
72369;SDS011;60343;-32.030;115.880;2022-11-20T12:49:11;4.68;;;0.43;;
72369;SDS011;60343;-32.030;115.880;2022-11-20T12:54:52;3.28;;;0.50;;
72369;SDS011;60343;-32.030;115.880;2022-11-20T12:57:40;3.08;;;0.47;;
72369;SDS011;60343;-32.030;115.880;2022-11-20T13:00:14;2.65;;;0.25;;
72369;SDS011;60343;-32.030;115.880;2022-11-20T13:05:50;0.98;;;0.30;;
72369;SDS011;60343;-32.030;115.880;2022-11-20T13:08:25;3.42;;;0.65;;
72369;SDS011;60343;-32.030;115.880;2022-11-20T13:10:57;3.63;;;0.38;;
72369;SDS011;60343;-32.030;115.880;2022-11-20T13:13:31;2.80;;;0.40;;
72369;SDS011;60343;-32.030;115.880;2022-11-20T13:16:08;1.90;;;0.30;;
72369;SDS011;60343;-32.030;115.880;2022-11-20T13:18:42;2.47;;;0.35;;
72369;SDS011;60343;-32.030;115.880;2022-11-20T13:21:22;3.28;;;0.40;;
72369;SDS011;60343;-32.030;115.880;2022-11-20T13:24:04;5.32;;;0.30;;
72369;SDS011;60343;-32.030;115.880;2022-11-20T13:26:32;2.45;;;0.30;;
72369;SDS011;60343;-32.030;115.880;2022-11-20T13:29:01;3.67;;;0.45;;
72369;SDS011;60343;-32.030;115.880;2022-11-20T13:31:38;3.42;;;0.32;;
72369;SDS011;60343;-32.030;115.880;2022-11-20T13:34:11;2.80;;;0.40;;
72369;SDS011;60343;-32.030;115.880;2022-11-20T13:36:55;1.42;;;0.20;;
72369;SDS011;60343;-32.030;115.880;2022-11-20T13:39:24;2.80;;;0.25;;
72369;SDS011;60343;-32.030;115.880;2022-11-20T13:41:57;1.65;;;0.20;;
72369;SDS011;60343;-32.030;115.880;2022-11-20T13:44:26;3.70;;;0.30;;
72369;SDS011;60343;-32.030;115.880;2022-11-20T13:46:56;3.97;;;0.40;;
72369;SDS011;60343;-32.030;115.880;2022-11-20T13:49:25;1.85;;;0.15;;
72369;SDS011;60343;-32.030;115.880;2022-11-20T13:52:04;2.15;;;0.30;;
72369;SDS011;60343;-32.030;115.880;2022-11-20T13:54:54;1.23;;;0.20;;
72369;SDS011;60343;-32.030;115.880;2022-11-20T13:57:37;0.85;;;0.10;;
72369;SDS011;60343;-32.030;115.880;2022-11-20T14:00:21;2.65;;;0.20;;
72369;SDS011;60343;-32.030;115.880;2022-11-20T14:02:52;3.03;;;0.50;;
72369;SDS011;60343;-32.030;115.880;2022-11-20T14:05:35;1.63;;;0.17;;
72369;SDS011;60343;-32.030;115.880;2022-11-20T14:08:12;3.95;;;0.22;;
72369;SDS011;60343;-32.030;115.880;2022-11-20T14:10:47;1.52;;;0.30;;
72369;SDS011;60343;-32.030;115.880;2022-11-20T14:13:16;2.50;;;0.20;;
72369;SDS011;60343;-32.030;115.880;2022-11-20T14:15:45;1.95;;;0.10;;
72369;SDS011;60343;-32.030;115.880;2022-11-20T14:18:14;1.50;;;0.30;;
72369;SDS011;60343;-32.030;115.880;2022-11-20T14:20:46;3.13;;;0.40;;
72369;SDS011;60343;-32.030;115.880;2022-11-20T14:23:22;2.15;;;0.22;;
72369;SDS011;60343;-32.030;115.880;2022-11-20T14:25:51;1.23;;;0.10;;
72369;SDS011;60343;-32.030;115.880;2022-11-20T14:28:21;3.05;;;0.40;;
72369;SDS011;60343;-32.030;115.880;2022-11-20T14:30:52;3.33;;;0.38;;
72369;SDS011;60343;-32.030;115.880;2022-11-20T14:33:21;2.90;;;0.13;;
72369;SDS011;60343;-32.030;115.880;2022-11-20T14:35:51;0.93;;;0.25;;
72369;SDS011;60343;-32.030;115.880;2022-11-20T14:38:26;1.75;;;0.17;;
72369;SDS011;60343;-32.030;115.880;2022-11-20T14:41:04;1.25;;;0.10;;
72369;SDS011;60343;-32.030;115.880;2022-11-20T14:43:33;1.52;;;0.20;;
72369;SDS011;60343;-32.030;115.880;2022-11-20T14:46:02;1.58;;;0.30;;
72369;SDS011;60343;-32.030;115.880;2022-11-20T14:48:31;1.60;;;0.28;;
72369;SDS011;60343;-32.030;115.880;2022-11-20T14:51:01;2.53;;;0.30;;
72369;SDS011;60343;-32.030;115.880;2022-11-20T14:53:38;2.13;;;0.20;;
72369;SDS011;60343;-32.030;115.880;2022-11-20T14:56:05;2.75;;;0.20;;
72369;SDS011;60343;-32.030;115.880;2022-11-20T14:58:34;2.17;;;0.45;;
72369;SDS011;60343;-32.030;115.880;2022-11-20T15:01:03;6.35;;;0.85;;
72369;SDS011;60343;-32.030;115.880;2022-11-20T15:03:32;1.58;;;0.20;;
72369;SDS011;60343;-32.030;115.880;2022-11-20T15:06:01;4.40;;;0.50;;
72369;SDS011;60343;-32.030;115.880;2022-11-20T15:08:28;1.85;;;0.20;;